SWA3994 KMCO-KMKE
Flight info
| Callsign | SWA3994 |
|---|---|
| Flight time | N/A |
| Altitude | 36000 |
| Route | RDSOX1 JFRYS BRUTS Q118 THRSR VXV J99 IIU J89 MACES VINNE BRAVE EXARR |
| Aircraft | B738/M-SADE2E3GIJ4RWZ/LB1D1 |
Departure
| Time | 2026-04-24 13:29 |
|---|---|
| Airport | Orlando International Airport (KMCO) |
Arrival
| Time | N/A |
|---|---|
| Airport | General Mitchell International Airport (KMKE) |
| Time | Latitude | Longitude | Altitude | Speed | Heading |
|---|---|---|---|---|---|
| 2026-04-24 12:46 | 28.43627 | -81.30195 | 100 ft | 0 kts | 159° |
| 2026-04-24 13:22 | 28.43640 | -81.30202 | 99 ft | 4 kts | 159° |
| 2026-04-24 13:22 | 28.43666 | -81.30212 | 98 ft | 4 kts | 162° |
| 2026-04-24 13:22 | 28.43692 | -81.30220 | 98 ft | 4 kts | 167° |
| 2026-04-24 13:23 | 28.43717 | -81.30229 | 97 ft | 4 kts | 146° |
| 2026-04-24 13:23 | 28.43730 | -81.30246 | 98 ft | 4 kts | 73° |
| 2026-04-24 13:23 | 28.43726 | -81.30256 | 97 ft | 1 kts | 51° |
| 2026-04-24 13:23 | 28.43725 | -81.30257 | 98 ft | 0 kts | 51° |
| 2026-04-24 13:25 | 28.43726 | -81.30257 | 100 ft | 0 kts | 51° |
| 2026-04-24 13:26 | 28.43729 | -81.30252 | 100 ft | 2 kts | 52° |
| 2026-04-24 13:26 | 28.43745 | -81.30229 | 99 ft | 6 kts | 47° |
| 2026-04-24 13:26 | 28.43791 | -81.30199 | 100 ft | 10 kts | 23° |
| 2026-04-24 13:26 | 28.43863 | -81.30165 | 100 ft | 13 kts | 23° |
| 2026-04-24 13:27 | 28.43901 | -81.30079 | 102 ft | 14 kts | 94° |
| 2026-04-24 13:27 | 28.43888 | -81.29963 | 103 ft | 16 kts | 112° |
| 2026-04-24 13:27 | 28.43814 | -81.29858 | 102 ft | 19 kts | 140° |
| 2026-04-24 13:27 | 28.43687 | -81.29809 | 103 ft | 20 kts | 176° |
| 2026-04-24 13:28 | 28.43589 | -81.29803 | 103 ft | 8 kts | 165° |
| 2026-04-24 13:28 | 28.43554 | -81.29753 | 103 ft | 9 kts | 103° |
| 2026-04-24 13:28 | 28.43550 | -81.29682 | 102 ft | 9 kts | 91° |
| 2026-04-24 13:28 | 28.43545 | -81.29612 | 103 ft | 9 kts | 125° |
| 2026-04-24 13:29 | 28.43433 | -81.29586 | 106 ft | 44 kts | 180° |
| 2026-04-24 13:29 | 28.42813 | -81.29579 | 103 ft | 131 kts | 179° |
| 2026-04-24 13:29 | 28.41672 | -81.29564 | 240 ft | 187 kts | 179° |
| 2026-04-24 13:29 | 28.40348 | -81.29730 | 1193 ft | 192 kts | 198° |
| 2026-04-24 13:30 | 28.39197 | -81.30543 | 2170 ft | 200 kts | 221° |
| 2026-04-24 13:30 | 28.38133 | -81.31701 | 2509 ft | 227 kts | 222° |
| 2026-04-24 13:30 | 28.36962 | -81.32987 | 2974 ft | 243 kts | 223° |
| 2026-04-24 13:30 | 28.35675 | -81.34384 | 3473 ft | 264 kts | 223° |
| 2026-04-24 13:31 | 28.34465 | -81.35973 | 4318 ft | 272 kts | 241° |
| 2026-04-24 13:31 | 28.34053 | -81.38051 | 5273 ft | 274 kts | 275° |
| 2026-04-24 13:31 | 28.34388 | -81.40184 | 6437 ft | 276 kts | 282° |
| 2026-04-24 13:31 | 28.34779 | -81.42302 | 7734 ft | 273 kts | 282° |
| 2026-04-24 13:32 | 28.35169 | -81.44430 | 8914 ft | 277 kts | 281° |
| 2026-04-24 13:32 | 28.35549 | -81.46589 | 10074 ft | 281 kts | 281° |
| 2026-04-24 13:32 | 28.35928 | -81.48820 | 10825 ft | 299 kts | 280° |
| 2026-04-24 13:32 | 28.36330 | -81.51271 | 11086 ft | 332 kts | 280° |
| 2026-04-24 13:33 | 28.36755 | -81.53927 | 11449 ft | 356 kts | 280° |
| 2026-04-24 13:33 | 28.37196 | -81.56730 | 12273 ft | 363 kts | 279° |
| 2026-04-24 13:33 | 28.37637 | -81.59561 | 13284 ft | 365 kts | 279° |
| 2026-04-24 13:33 | 28.38076 | -81.62408 | 14223 ft | 368 kts | 279° |
| 2026-04-24 13:34 | 28.38519 | -81.65291 | 15050 ft | 373 kts | 279° |
| 2026-04-24 13:34 | 28.38967 | -81.68211 | 15833 ft | 378 kts | 280° |
| 2026-04-24 13:34 | 28.39418 | -81.71163 | 16633 ft | 382 kts | 280° |
| 2026-04-24 13:34 | 28.39874 | -81.74153 | 17438 ft | 386 kts | 280° |
| 2026-04-24 13:35 | 28.40334 | -81.77172 | 18222 ft | 390 kts | 280° |
| 2026-04-24 13:35 | 28.40800 | -81.80229 | 18882 ft | 394 kts | 280° |
| 2026-04-24 13:35 | 28.41268 | -81.83310 | 19537 ft | 398 kts | 280° |
| 2026-04-24 13:35 | 28.41741 | -81.86419 | 20194 ft | 402 kts | 281° |
| 2026-04-24 13:36 | 28.42217 | -81.89562 | 20842 ft | 405 kts | 281° |
| 2026-04-24 13:36 | 28.42644 | -81.92739 | 21457 ft | 410 kts | 277° |
| 2026-04-24 13:36 | 28.42772 | -81.96006 | 22054 ft | 415 kts | 273° |
| 2026-04-24 13:36 | 28.42804 | -81.99296 | 22635 ft | 419 kts | 272° |
| 2026-04-24 13:37 | 28.42818 | -82.02622 | 23216 ft | 422 kts | 272° |
| 2026-04-24 13:37 | 28.42839 | -82.05977 | 23735 ft | 426 kts | 273° |
| 2026-04-24 13:37 | 28.42872 | -82.09357 | 24180 ft | 430 kts | 273° |
| 2026-04-24 13:37 | 28.42915 | -82.12722 | 24641 ft | 432 kts | 273° |
| 2026-04-24 13:38 | 28.42963 | -82.16147 | 25111 ft | 435 kts | 273° |
| 2026-04-24 13:38 | 28.43015 | -82.19590 | 25570 ft | 437 kts | 273° |
| 2026-04-24 13:38 | 28.43066 | -82.23058 | 25996 ft | 440 kts | 273° |
| 2026-04-24 13:38 | 28.43117 | -82.26549 | 26415 ft | 443 kts | 273° |
| 2026-04-24 13:39 | 28.43167 | -82.30065 | 26832 ft | 446 kts | 273° |
| 2026-04-24 13:39 | 28.43217 | -82.33604 | 27238 ft | 449 kts | 273° |
| 2026-04-24 13:39 | 28.43265 | -82.37158 | 27625 ft | 452 kts | 272° |
| 2026-04-24 13:39 | 28.43306 | -82.39531 | 27880 ft | 453 kts | 275° |
| 2026-04-24 13:40 | 28.43898 | -82.43034 | 28209 ft | 453 kts | 291° |
| 2026-04-24 13:40 | 28.45391 | -82.46171 | 28618 ft | 453 kts | 306° |
| 2026-04-24 13:40 | 28.47503 | -82.48825 | 29072 ft | 454 kts | 318° |
| 2026-04-24 13:40 | 28.51045 | -82.51337 | 29743 ft | 455 kts | 335° |
| 2026-04-24 13:41 | 28.53013 | -82.52276 | 30157 ft | 454 kts | 336° |
| 2026-04-24 13:41 | 28.55947 | -82.53605 | 30631 ft | 453 kts | 337° |
| 2026-04-24 13:41 | 28.58884 | -82.54908 | 31066 ft | 453 kts | 337° |
| 2026-04-24 13:41 | 28.61817 | -82.56216 | 31499 ft | 452 kts | 337° |
| 2026-04-24 13:42 | 28.64704 | -82.57521 | 31963 ft | 451 kts | 336° |
| 2026-04-24 13:42 | 28.67652 | -82.58871 | 32445 ft | 450 kts | 336° |
| 2026-04-24 13:42 | 28.70514 | -82.60195 | 32886 ft | 449 kts | 336° |
| 2026-04-24 13:42 | 28.73407 | -82.61541 | 33324 ft | 449 kts | 336° |
| 2026-04-24 13:43 | 28.76300 | -82.62891 | 33788 ft | 448 kts | 336° |
| 2026-04-24 13:43 | 28.79185 | -82.64238 | 34189 ft | 448 kts | 336° |
| 2026-04-24 13:43 | 28.82077 | -82.65591 | 34549 ft | 448 kts | 336° |
| 2026-04-24 13:43 | 28.84961 | -82.66939 | 34935 ft | 448 kts | 336° |
| 2026-04-24 13:44 | 28.87843 | -82.68287 | 35314 ft | 447 kts | 336° |
| 2026-04-24 13:44 | 28.90724 | -82.69635 | 35669 ft | 447 kts | 336° |
| 2026-04-24 13:44 | 28.93599 | -82.70980 | 36014 ft | 447 kts | 336° |
| 2026-04-24 13:44 | 28.96499 | -82.72339 | 36041 ft | 453 kts | 336° |
| 2026-04-24 13:45 | 29.02353 | -82.75083 | 36047 ft | 454 kts | 336° |
| 2026-04-24 13:45 | 29.08163 | -82.77808 | 36063 ft | 449 kts | 336° |
| 2026-04-24 13:46 | 29.13900 | -82.80503 | 36063 ft | 449 kts | 336° |
| 2026-04-24 13:46 | 29.19675 | -82.83220 | 36065 ft | 449 kts | 336° |
| 2026-04-24 13:47 | 29.25450 | -82.85940 | 36062 ft | 449 kts | 336° |
| 2026-04-24 13:47 | 29.31231 | -82.88666 | 36053 ft | 449 kts | 336° |
| 2026-04-24 13:48 | 29.37014 | -82.91397 | 36056 ft | 449 kts | 336° |
| 2026-04-24 13:48 | 29.42799 | -82.94132 | 36055 ft | 450 kts | 336° |
| 2026-04-24 13:49 | 29.48600 | -82.96877 | 36053 ft | 451 kts | 336° |
| 2026-04-24 13:49 | 29.54402 | -82.99626 | 36058 ft | 451 kts | 336° |
| 2026-04-24 13:50 | 29.60207 | -83.02379 | 36055 ft | 451 kts | 336° |
| 2026-04-24 13:50 | 29.66020 | -83.05141 | 36062 ft | 451 kts | 336° |
| 2026-04-24 13:51 | 29.71790 | -83.07885 | 36054 ft | 452 kts | 336° |
| 2026-04-24 13:51 | 29.77604 | -83.10654 | 36059 ft | 452 kts | 336° |
| 2026-04-24 13:52 | 29.83417 | -83.13426 | 36053 ft | 452 kts | 336° |
| 2026-04-24 13:52 | 29.89228 | -83.16201 | 36053 ft | 452 kts | 336° |
| 2026-04-24 13:53 | 29.95041 | -83.18980 | 36055 ft | 452 kts | 336° |
| 2026-04-24 13:53 | 30.00852 | -83.21762 | 36056 ft | 452 kts | 336° |
| 2026-04-24 13:54 | 30.06630 | -83.24532 | 36057 ft | 452 kts | 336° |
| 2026-04-24 13:54 | 30.12451 | -83.27326 | 36057 ft | 452 kts | 336° |
| 2026-04-24 13:55 | 30.18265 | -83.30121 | 36056 ft | 453 kts | 336° |
| 2026-04-24 13:55 | 30.24082 | -83.32919 | 36057 ft | 453 kts | 336° |
| 2026-04-24 13:56 | 30.29898 | -83.35725 | 36057 ft | 453 kts | 335° |
| 2026-04-24 13:56 | 30.35708 | -83.38535 | 36061 ft | 453 kts | 335° |
| 2026-04-24 13:57 | 30.41523 | -83.41351 | 36057 ft | 453 kts | 335° |
| 2026-04-24 13:57 | 30.47337 | -83.44169 | 36061 ft | 453 kts | 335° |
| 2026-04-24 13:58 | 30.53115 | -83.46974 | 36058 ft | 453 kts | 335° |
| 2026-04-24 13:58 | 30.58931 | -83.49801 | 36062 ft | 453 kts | 335° |
| 2026-04-24 13:59 | 30.64741 | -83.52628 | 36058 ft | 453 kts | 335° |
| 2026-04-24 13:59 | 30.70563 | -83.55465 | 36060 ft | 453 kts | 335° |
| 2026-04-24 14:00 | 30.76371 | -83.58299 | 36062 ft | 453 kts | 335° |
| 2026-04-24 14:00 | 30.82177 | -83.61136 | 36073 ft | 453 kts | 335° |
| 2026-04-24 14:01 | 30.87991 | -83.63981 | 36066 ft | 453 kts | 335° |
| 2026-04-24 14:01 | 30.93808 | -83.66830 | 36059 ft | 454 kts | 335° |
| 2026-04-24 14:02 | 30.99628 | -83.69685 | 36057 ft | 454 kts | 335° |
| 2026-04-24 14:02 | 31.05413 | -83.72527 | 36054 ft | 454 kts | 335° |
| 2026-04-24 14:03 | 31.11235 | -83.75390 | 36059 ft | 454 kts | 335° |
| 2026-04-24 14:03 | 31.17053 | -83.78255 | 36054 ft | 454 kts | 335° |
| 2026-04-24 14:04 | 31.22871 | -83.81125 | 36060 ft | 453 kts | 335° |
| 2026-04-24 14:04 | 31.28644 | -83.83975 | 36055 ft | 453 kts | 335° |
| 2026-04-24 14:05 | 31.34456 | -83.86849 | 36057 ft | 453 kts | 335° |
| 2026-04-24 14:05 | 31.40266 | -83.89727 | 36064 ft | 453 kts | 335° |
| 2026-04-24 14:06 | 31.46079 | -83.92609 | 36067 ft | 453 kts | 335° |
| 2026-04-24 14:06 | 31.51890 | -83.95448 | 36065 ft | 453 kts | 338° |
| 2026-04-24 14:07 | 31.58011 | -83.97114 | 36066 ft | 455 kts | 347° |
| 2026-04-24 14:07 | 31.64253 | -83.98421 | 36050 ft | 455 kts | 348° |
| 2026-04-24 14:08 | 31.70485 | -83.99750 | 36055 ft | 455 kts | 347° |
| 2026-04-24 14:08 | 31.76712 | -84.01120 | 36059 ft | 455 kts | 347° |
| 2026-04-24 14:09 | 31.82933 | -84.02507 | 36062 ft | 455 kts | 347° |
| 2026-04-24 14:09 | 31.89162 | -84.03900 | 36063 ft | 455 kts | 347° |
| 2026-04-24 14:10 | 31.95387 | -84.05293 | 36045 ft | 455 kts | 347° |
| 2026-04-24 14:10 | 32.01616 | -84.06688 | 36031 ft | 456 kts | 347° |
| 2026-04-24 14:11 | 32.07848 | -84.08086 | 36031 ft | 456 kts | 347° |
| 2026-04-24 14:12 | 32.17161 | -84.10178 | 36030 ft | 456 kts | 347° |
| 2026-04-24 14:12 | 32.23396 | -84.11581 | 36039 ft | 456 kts | 347° |
| 2026-04-24 14:13 | 32.29627 | -84.12985 | 36036 ft | 456 kts | 347° |
| 2026-04-24 14:13 | 32.35860 | -84.14391 | 36040 ft | 455 kts | 347° |
| 2026-04-24 14:14 | 32.42083 | -84.15797 | 36032 ft | 455 kts | 347° |
| 2026-04-24 14:14 | 32.51411 | -84.17909 | 36034 ft | 455 kts | 347° |
| 2026-04-24 14:15 | 32.57625 | -84.19318 | 36032 ft | 454 kts | 347° |
| 2026-04-24 14:15 | 32.63839 | -84.20729 | 36038 ft | 454 kts | 347° |
| 2026-04-24 14:16 | 32.70050 | -84.22141 | 36047 ft | 454 kts | 347° |
| 2026-04-24 14:17 | 32.79321 | -84.24253 | 36057 ft | 454 kts | 347° |
| 2026-04-24 14:17 | 32.88628 | -84.26378 | 36069 ft | 453 kts | 347° |
| 2026-04-24 14:18 | 32.94828 | -84.27796 | 36071 ft | 453 kts | 347° |
| 2026-04-24 14:18 | 33.01025 | -84.29215 | 36064 ft | 453 kts | 347° |
| 2026-04-24 14:19 | 33.07204 | -84.30632 | 36045 ft | 452 kts | 347° |
| 2026-04-24 14:19 | 33.13369 | -84.32048 | 36051 ft | 451 kts | 347° |
| 2026-04-24 14:20 | 33.19529 | -84.33464 | 36066 ft | 450 kts | 347° |
| 2026-04-24 14:20 | 33.25677 | -84.34881 | 36071 ft | 450 kts | 347° |
| 2026-04-24 14:21 | 33.31821 | -84.36298 | 36089 ft | 450 kts | 347° |
| 2026-04-24 14:21 | 33.37926 | -84.37709 | 36049 ft | 450 kts | 347° |
| 2026-04-24 14:22 | 33.44072 | -84.39131 | 36056 ft | 450 kts | 347° |
| 2026-04-24 14:23 | 33.53293 | -84.41268 | 36049 ft | 450 kts | 347° |
| 2026-04-24 14:23 | 33.59439 | -84.42692 | 36058 ft | 450 kts | 348° |
| 2026-04-24 14:24 | 33.65060 | -84.43026 | 36042 ft | 441 kts | 3° |
| 2026-04-24 14:24 | 33.68035 | -84.42446 | 36054 ft | 424 kts | 8° |
| 2026-04-24 14:24 | 33.70875 | -84.41763 | 36036 ft | 408 kts | 9° |
| 2026-04-24 14:24 | 33.73602 | -84.41096 | 36035 ft | 392 kts | 8° |
| 2026-04-24 14:25 | 33.75343 | -84.40672 | 36024 ft | 381 kts | 8° |
| 2026-04-24 14:25 | 33.78740 | -84.39854 | 36018 ft | 362 kts | 8° |
| 2026-04-24 14:25 | 33.81159 | -84.39281 | 36024 ft | 347 kts | 8° |
| 2026-04-24 14:25 | 33.83450 | -84.38742 | 36010 ft | 334 kts | 7° |
| 2026-04-24 14:26 | 33.85698 | -84.38217 | 35930 ft | 321 kts | 7° |
| 2026-04-24 14:26 | 33.87843 | -84.37716 | 35957 ft | 307 kts | 7° |
| 2026-04-24 14:26 | 33.89886 | -84.37240 | 35980 ft | 291 kts | 7° |
| 2026-04-24 14:26 | 33.91828 | -84.36787 | 35862 ft | 281 kts | 7° |
| 2026-04-24 14:27 | 33.93819 | -84.36316 | 34747 ft | 307 kts | 8° |
| 2026-04-24 14:27 | 33.96032 | -84.35782 | 33599 ft | 336 kts | 7° |
| 2026-04-24 14:27 | 33.98296 | -84.35261 | 33594 ft | 320 kts | 7° |
| 2026-04-24 14:27 | 34.00446 | -84.34763 | 33438 ft | 313 kts | 7° |
| 2026-04-24 14:28 | 34.02583 | -84.34228 | 33069 ft | 312 kts | 9° |
| 2026-04-24 14:28 | 34.03972 | -84.33826 | 32950 ft | 307 kts | 11° |
| 2026-04-24 14:28 | 34.06648 | -84.32875 | 32696 ft | 298 kts | 11° |
| 2026-04-24 14:28 | 34.08017 | -84.32598 | 32333 ft | 295 kts | 354° |
| 2026-04-24 14:29 | 34.10865 | -84.32778 | 30940 ft | 327 kts | 4° |
| 2026-04-24 14:29 | 34.13053 | -84.32103 | 30915 ft | 317 kts | 19° |
| 2026-04-24 14:29 | 34.14375 | -84.31348 | 30811 ft | 312 kts | 22° |
| 2026-04-24 14:29 | 34.16415 | -84.30376 | 30285 ft | 316 kts | 20° |
| 2026-04-24 14:30 | 34.18306 | -84.29189 | 30488 ft | 296 kts | 28° |
| 2026-04-24 14:30 | 34.19985 | -84.27830 | 30147 ft | 297 kts | 29° |
| 2026-04-24 14:30 | 34.21760 | -84.26539 | 29697 ft | 297 kts | 25° |